Time;durP1;ratioP1;P1;durP2;ratioP2;P2;SDS_P1;SDS_P2;PMS_P1;PMS_P2;Temp;Humidity;BMP_temperature;BMP_pressure;BME280_temperature;BME280_humidity;BME280_pressure;Samples;Min_cycle;Max_cycle;Signal;HPM_P1;HPM_P2
2021/12/08 00:00:58;;;;;;;1.73;0.80;;;;;;;18.29;44.74;102176.00;4180597;28;20049;-56
2021/12/08 00:03:03;;;;;;;0.85;0.73;;;;;;;18.27;44.68;102161.50;4188306;28;20308;-54
2021/12/08 00:05:06;;;;;;;1.40;0.88;;;;;;;18.23;44.64;102166.66;4195520;28;20086;-54
2021/12/08 00:07:08;;;;;;;1.42;0.68;;;;;;;18.28;45.09;102185.41;4182341;28;20044;-57
2021/12/08 00:09:27;;;;;;;1.98;1.00;;;;;;;18.28;44.84;102196.47;4192079;28;20536;-55
2021/12/08 00:13:49;;;;;;;1.02;0.73;;;;;;;18.32;44.50;102207.91;4185394;28;20431;-57
2021/12/08 00:15:53;;;;;;;1.35;0.80;;;;;;;18.18;44.88;102185.91;4187987;28;20099;-55
2021/12/08 00:17:56;;;;;;;0.70;0.70;;;;;;;18.31;44.65;102201.53;4196631;28;20438;-57
2021/12/08 00:20:01;;;;;;;1.77;0.80;;;;;;;18.28;44.89;102202.03;4190829;28;20085;-55
2021/12/08 00:22:03;;;;;;;1.83;0.88;;;;;;;18.32;44.45;102202.38;4188570;28;20424;-56
2021/12/08 00:24:04;;;;;;;2.03;0.70;;;;;;;18.17;44.68;102183.38;4188771;28;20095;-56
2021/12/08 00:26:06;;;;;;;1.83;0.77;;;;;;;18.19;44.42;102193.19;4188462;28;20103;-56
2021/12/08 00:28:09;;;;;;;2.15;0.70;;;;;;;18.29;44.55;102221.19;4189428;28;20494;-57
2021/12/08 00:30:10;;;;;;;1.33;0.70;;;;;;;18.29;44.44;102226.72;4196135;28;20590;-56
2021/12/08 00:32:12;;;;;;;3.53;1.17;;;;;;;18.30;44.55;102222.03;4193742;28;20033;-58
2021/12/08 00:34:14;;;;;;;1.10;0.88;;;;;;;18.29;44.69;102218.41;4193064;28;20083;-55
2021/12/08 00:36:18;;;;;;;0.60;0.60;;;;;;;18.29;44.66;102212.88;4193294;28;20025;-56
2021/12/08 00:38:20;;;;;;;0.77;0.65;;;;;;;18.29;44.61;102221.19;4189117;28;20071;-55
2021/12/08 00:40:22;;;;;;;1.90;0.70;;;;;;;18.29;44.83;102229.50;4191410;28;20033;-54
2021/12/08 00:42:24;;;;;;;1.60;0.90;;;;;;;18.29;44.76;102221.19;4183411;28;20032;-55
2021/12/08 00:44:25;;;;;;;2.33;0.80;;;;;;;18.26;44.65;102205.00;4184396;28;20146;-54
2021/12/08 00:46:26;;;;;;;0.95;0.70;;;;;;;18.27;44.90;102206.69;4197280;28;20095;-54
2021/12/08 00:48:28;;;;;;;0.88;0.80;;;;;;;18.19;44.41;102193.19;4184536;28;20025;-54
2021/12/08 00:50:32;;;;;;;1.23;0.80;;;;;;;17.71;44.36;102094.22;4185053;28;20033;-57
2021/12/08 00:52:34;;;;;;;1.02;0.80;;;;;;;18.26;44.63;102182.84;4187445;28;20407;-54
2021/12/08 00:54:36;;;;;;;1.40;0.80;;;;;;;18.25;44.56;102197.78;4182893;28;20040;-54
2021/12/08 00:56:37;;;;;;;1.52;0.80;;;;;;;18.23;44.71;102194.38;4185304;28;20506;-55
2021/12/08 00:58:39;;;;;;;1.05;0.90;;;;;;;18.24;44.62;102196.09;4183126;28;20037;-54
2021/12/08 01:00:47;;;;;;;0.70;0.70;;;;;;;18.22;44.64;102201.00;4189742;28;20045;-55
2021/12/08 01:02:51;;;;;;;0.88;0.80;;;;;;;18.23;44.51;102194.38;4182899;28;20545;-55
2021/12/08 01:04:52;;;;;;;0.60;0.60;;;;;;;18.23;44.52;102205.47;4182854;28;20021;-56
2021/12/08 01:06:53;;;;;;;0.68;0.68;;;;;;;18.16;44.94;102196.41;4186643;28;20040;-53
2021/12/08 01:08:55;;;;;;;1.10;0.70;;;;;;;18.22;44.60;102209.31;4182583;28;20057;-54
2021/12/08 01:11:05;;;;;;;1.00;0.70;;;;;;;18.15;44.66;102196.63;4182903;28;20045;-55
2021/12/08 01:13:09;;;;;;;1.30;0.80;;;;;;;18.23;44.50;102210.16;4183232;28;20099;-53
2021/12/08 01:15:10;;;;;;;2.03;0.70;;;;;;;18.23;44.69;102210.16;4194477;28;20037;-55
2021/12/08 01:17:14;;;;;;;2.60;0.73;;;;;;;18.20;44.84;102200.41;4195402;28;20033;-56
2021/12/08 01:19:15;;;;;;;0.90;0.60;;;;;;;18.23;44.56;102193.53;4183837;28;20067;-54
2021/12/08 01:21:18;;;;;;;1.75;0.98;;;;;;;18.22;44.96;102186.31;4191321;28;20021;-55
2021/12/08 01:23:20;;;;;;;1.83;1.00;;;;;;;18.17;44.93;102184.22;4187008;28;20041;-55
2021/12/08 01:25:21;;;;;;;1.20;0.70;;;;;;;18.20;44.74;102194.88;4189572;28;20090;-52
2021/12/08 01:27:23;;;;;;;0.80;0.75;;;;;;;18.17;44.88;102200.84;4180962;28;20036;-56
2021/12/08 01:29:24;;;;;;;0.95;0.60;;;;;;;18.18;44.71;102197.00;4189404;28;20045;-58
2021/12/08 01:31:27;;;;;;;0.80;0.80;;;;;;;18.18;44.50;102208.09;4183084;28;20049;-54
2021/12/08 01:33:32;;;;;;;1.65;0.90;;;;;;;18.18;44.59;102197.00;4189976;28;20481;-55
2021/12/08 01:35:33;;;;;;;2.17;0.88;;;;;;;18.17;44.58;102195.31;4191251;28;20102;-54
2021/12/08 01:37:35;;;;;;;1.02;0.93;;;;;;;18.17;44.67;102200.00;4181997;28;20423;-57
2021/12/08 01:39:37;;;;;;;1.50;0.60;;;;;;;18.18;44.67;102201.69;4182410;28;20072;-58
2021/12/08 01:41:39;;;;;;;3.35;0.70;;;;;;;18.16;44.54;102204.72;4182183;28;20041;-56
2021/12/08 01:43:43;;;;;;;1.23;0.82;;;;;;;18.14;44.43;102195.75;4182259;28;20029;-56
2021/12/08 01:45:58;;;;;;;1.50;0.65;;;;;;;18.18;44.64;102201.69;4182726;28;20036;-55
2021/12/08 01:48:03;;;;;;;1.30;0.80;;;;;;;18.19;44.34;102206.16;4183136;28;20037;-57
2021/12/08 01:50:07;;;;;;;1.47;0.90;;;;;;;18.16;44.24;102201.09;4181988;28;20106;-56
2021/12/08 01:52:09;;;;;;;1.50;0.90;;;;;;;18.03;44.61;102175.25;4182013;28;20266;-58
2021/12/08 01:54:11;;;;;;;1.17;0.70;;;;;;;18.19;44.50;102203.38;4182140;28;20025;-57
2021/12/08 01:56:12;;;;;;;1.92;0.90;;;;;;;18.16;44.65;102209.41;4182028;28;20041;-56
2021/12/08 01:58:15;;;;;;;1.88;0.93;;;;;;;18.17;44.64;102206.41;4182072;28;20545;-55
2021/12/08 02:00:30;;;;;;;0.82;0.70;;;;;;;18.18;44.53;102198.94;4182213;28;20099;-58
2021/12/08 02:02:31;;;;;;;2.58;0.90;;;;;;;18.16;44.61;102193.63;4182092;28;20075;-56
2021/12/08 02:04:32;;;;;;;0.93;0.73;;;;;;;18.18;44.53;102194.22;4182044;28;20103;-57
2021/12/08 02:06:37;;;;;;;1.45;0.80;;;;;;;18.17;44.24;102195.31;4186707;28;20040;-56
2021/12/08 02:08:39;;;;;;;1.75;0.90;;;;;;;18.17;44.54;102200.84;4182161;28;20037;-54
2021/12/08 02:10:41;;;;;;;3.63;0.85;;;;;;;18.17;44.25;102202.78;4181715;28;20029;-53
2021/12/08 02:12:42;;;;;;;1.10;0.70;;;;;;;17.97;44.27;102167.03;4182786;28;20044;-52
2021/12/08 02:14:44;;;;;;;0.80;0.80;;;;;;;18.14;44.35;102190.22;4193007;28;20036;-56
2021/12/08 02:16:47;;;;;;;1.48;0.77;;;;;;;18.17;44.21;102192.53;4188697;28;20082;-55
2021/12/08 02:18:50;;;;;;;1.80;1.10;;;;;;;18.17;44.26;102192.53;4187696;28;20083;-58
2021/12/08 02:20:52;;;;;;;1.17;0.88;;;;;;;18.14;44.28;102184.69;4184270;28;20099;-56
2021/12/08 02:22:54;;;;;;;2.47;1.05;;;;;;;18.17;44.49;102170.38;4184957;28;20135;-57
2021/12/08 02:24:55;;;;;;;1.83;1.00;;;;;;;18.10;44.50;102152.13;4192370;28;20040;-56
2021/12/08 02:26:58;;;;;;;0.93;0.70;;;;;;;18.15;44.29;102167.00;4183526;28;20041;-57
2021/12/08 02:29:04;;;;;;;1.30;0.88;;;;;;;18.14;44.33;102170.84;4193400;28;20534;-58
2021/12/08 02:31:10;;;;;;;2.10;1.50;;;;;;;18.14;44.31;102172.75;4183316;28;20049;-55
2021/12/08 02:47:29;;;;;;;1.83;0.90;;;;;;;17.94;44.27;102132.31;4185302;28;20082;-56
2021/12/08 02:49:31;;;;;;;0.90;0.90;;;;;;;18.11;44.25;102151.94;4194341;28;20533;-54
2021/12/08 02:51:36;;;;;;;1.40;1.00;;;;;;;17.92;44.67;102114.25;4181329;28;20106;-55
2021/12/08 02:53:37;;;;;;;1.20;0.80;;;;;;;18.11;44.49;102134.47;4192362;28;20110;-56
2021/12/08 02:55:41;;;;;;;4.47;0.98;;;;;;;18.06;44.37;102137.94;4189052;28;20100;-54
2021/12/08 02:57:42;;;;;;;2.70;0.75;;;;;;;18.10;44.74;102138.28;4181003;28;20029;-55
2021/12/08 02:59:47;;;;;;;1.27;0.90;;;;;;;18.10;44.78;102141.06;4181042;28;20464;-57
2021/12/08 03:01:49;;;;;;;;;;;;;;;18.07;44.72;102139.63;4181548;28;20037;-55
2021/12/08 03:03:50;;;;;;;0.82;0.82;;;;;;;18.03;44.51;102116.22;4181328;28;19927;-54
2021/12/08 03:05:52;;;;;;;1.13;0.80;;;;;;;18.14;44.32;102139.53;4192053;28;20040;-57
2021/12/08 03:07:54;;;;;;;1.23;0.95;;;;;;;18.12;44.36;102137.00;4193025;28;20434;-60
2021/12/08 03:10:04;;;;;;;1.85;1.00;;;;;;;17.94;44.60;102112.09;4193028;28;20044;-57
2021/12/08 03:12:06;;;;;;;1.02;0.90;;;;;;;18.06;44.39;102132.41;4191310;28;20115;-57
2021/12/08 03:14:11;;;;;;;2.03;0.85;;;;;;;18.07;44.63;102128.53;4193763;28;20533;-58
2021/12/08 03:16:13;;;;;;;1.52;0.90;;;;;;;18.07;44.69;102134.06;4193169;28;20032;-54
2021/12/08 03:18:14;;;;;;;2.92;0.90;;;;;;;18.07;44.42;102147.94;4193360;28;20399;-57
2021/12/08 03:20:26;;;;;;;1.73;0.90;;;;;;;18.05;44.74;102155.59;4192202;28;20106;-56
2021/12/08 03:22:28;;;;;;;1.25;0.93;;;;;;;18.06;44.45;102168.41;4187566;28;20476;-55
2021/12/08 03:24:36;;;;;;;0.95;0.80;;;;;;;18.04;44.44;102173.31;4185048;28;20538;-56
2021/12/08 03:29:14;;;;;;;1.75;0.93;;;;;;;18.06;44.84;102171.16;4185838;28;20517;-56
2021/12/08 03:31:19;;;;;;;2.45;1.00;;;;;;;18.06;44.76;102182.25;4184431;28;20455;-57
2021/12/08 03:33:21;;;;;;;2.28;1.13;;;;;;;18.05;44.88;102175.00;4191609;28;20094;-58
2021/12/08 03:35:23;;;;;;;1.73;1.00;;;;;;;18.00;44.78;102163.78;4188577;28;20036;-59
2021/12/08 03:37:29;;;;;;;2.40;0.90;;;;;;;18.00;44.64;102177.63;4194242;28;20044;-57
2021/12/08 03:39:31;;;;;;;2.38;0.90;;;;;;;18.03;44.65;102169.69;4194055;28;20446;-55
2021/12/08 03:41:34;;;;;;;1.55;0.90;;;;;;;18.03;44.69;102171.63;4187310;28;20044;-56
2021/12/08 03:43:36;;;;;;;1.42;0.85;;;;;;;18.02;44.59;102164.41;4196208;28;20052;-57
2021/12/08 03:45:43;;;;;;;1.38;0.95;;;;;;;17.94;44.83;102145.31;4192662;28;20032;-57
2021/12/08 03:47:47;;;;;;;1.63;1.17;;;;;;;18.02;44.67;102159.69;4192298;28;20044;-57
2021/12/08 03:49:48;;;;;;;1.40;0.85;;;;;;;18.06;44.66;102160.09;4193638;28;20048;-58
2021/12/08 03:51:50;;;;;;;1.20;0.80;;;;;;;18.06;44.79;102151.78;4190923;28;20041;-57
2021/12/08 03:53:51;;;;;;;1.50;1.00;;;;;;;18.06;44.75;102154.56;4192301;28;20090;-56
2021/12/08 03:55:55;;;;;;;1.38;0.88;;;;;;;18.06;44.66;102149.00;4192510;28;20041;-57
2021/12/08 03:57:57;;;;;;;1.05;0.82;;;;;;;18.06;45.12;102132.41;4187534;28;20029;-57
2021/12/08 03:59:59;;;;;;;2.58;1.17;;;;;;;18.06;45.06;102126.84;4189924;28;20467;-57
2021/12/08 04:02:00;;;;;;;1.08;0.75;;;;;;;17.88;45.38;102107.50;4190295;28;20033;-57
2021/12/08 04:04:08;;;;;;;1.10;0.88;;;;;;;18.05;45.32;102139.00;4192143;28;20182;-56
2021/12/08 04:06:26;;;;;;;1.67;1.00;;;;;;;18.02;45.65;102126.47;4195881;28;20036;-57
2021/12/08 04:08:34;;;;;;;1.15;0.73;;;;;;;18.04;46.22;102117.91;4191082;28;20054;-58
2021/12/08 04:10:38;;;;;;;2.50;1.10;;;;;;;18.04;45.99;102118.75;4194596;28;20045;-58
2021/12/08 04:12:39;;;;;;;2.50;1.00;;;;;;;18.00;46.09;102116.69;4193486;28;20479;-59
2021/12/08 04:14:58;;;;;;;2.65;1.33;;;;;;;18.03;45.99;102132.84;4192240;28;20044;-56
2021/12/08 04:17:10;;;;;;;1.90;1.20;;;;;;;18.01;46.17;102135.88;4187904;28;20561;-56
2021/12/08 04:19:12;;;;;;;2.50;1.27;;;;;;;17.95;46.38;102119.31;4182160;28;20095;-57
2021/12/08 04:21:18;;;;;;;3.35;1.00;;;;;;;18.02;46.73;102128.41;4190286;28;20467;-58
2021/12/08 04:23:22;;;;;;;1.35;1.00;;;;;;;17.93;46.37;102115.94;4192649;28;20081;-57
2021/12/08 04:25:32;;;;;;;1.65;1.08;;;;;;;17.98;46.68;102127.16;4194646;28;20041;-58
2021/12/08 04:27:37;;;;;;;4.05;1.40;;;;;;;17.91;46.27;102115.31;4190407;28;20037;-55
2021/12/08 04:29:41;;;;;;;2.63;1.08;;;;;;;17.95;46.52;102117.38;4191812;28;20112;-59
2021/12/08 04:31:44;;;;;;;1.33;0.98;;;;;;;18.02;46.59;102129.25;4192089;28;20094;-56
2021/12/08 04:33:55;;;;;;;1.15;0.93;;;;;;;18.01;46.41;102112.88;4191884;28;20044;-57
2021/12/08 04:35:58;;;;;;;1.90;1.10;;;;;;;18.02;46.32;102114.53;4189597;28;20441;-56
2021/12/08 04:38:12;;;;;;;1.27;1.00;;;;;;;17.97;46.58;102118.00;4190506;28;20105;-57
2021/12/08 04:40:31;;;;;;;2.47;0.93;;;;;;;17.99;46.42;102115.00;4189531;28;20048;-57
2021/12/08 04:43:20;;;;;;;2.28;1.13;;;;;;;18.01;46.54;102101.78;4180279;28;20083;-58
2021/12/08 04:45:05;;;;;;;1.60;1.20;;;;;;;18.01;46.39;102102.63;4177192;28;20045;-57
2021/12/08 04:47:28;;;;;;;2.53;1.02;;;;;;;17.98;46.71;102102.25;4179923;28;20041;-57
2021/12/08 04:50:15;;;;;;;;;;;;;;;;;;;;;
2021/12/08 04:52:00;;;;;;;1.00;0.93;;;;;;;18.01;46.41;102104.56;4180012;28;20025;-53
2021/12/08 05:01:27;;;;;;;1.00;0.70;;;;;;;17.81;46.63;102062.41;4193176;28;20094;-57
2021/12/08 05:08:12;;;;;;;1.52;0.90;;;;;;;17.93;46.59;102071.63;4187230;28;20091;-57
2021/12/08 05:10:17;;;;;;;0.97;0.97;;;;;;;17.95;46.40;102077.78;4197053;28;20252;-56
2021/12/08 05:12:22;;;;;;;2.15;1.05;;;;;;;17.96;46.91;102071.16;4182957;28;20744;-54
2021/12/08 05:14:33;;;;;;;1.98;1.17;;;;;;;17.96;46.45;102071.16;4186882;28;20078;-55
2021/12/08 05:16:36;;;;;;;1.15;0.80;;;;;;;17.93;46.38;102055.03;4182811;28;20049;-57
2021/12/08 05:18:45;;;;;;;1.85;1.00;;;;;;;17.90;46.35;102056.31;4189190;28;20090;-56
2021/12/08 05:21:05;;;;;;;1.63;1.00;;;;;;;17.90;46.63;102061.84;4183116;28;20086;-57
2021/12/08 05:23:16;;;;;;;2.97;1.20;;;;;;;17.92;46.83;102043.09;4182992;28;20099;-57
2021/12/08 05:25:22;;;;;;;1.73;1.00;;;;;;;17.93;46.83;102049.47;4182801;28;20041;-57
2021/12/08 05:27:34;;;;;;;1.63;0.77;;;;;;;17.93;46.87;102038.41;4182469;28;20051;-58
2021/12/08 05:29:43;;;;;;;3.47;1.10;;;;;;;17.92;46.49;102037.56;4184110;28;20061;-55
2021/12/08 05:31:46;;;;;;;4.15;1.50;;;;;;;17.93;46.80;102027.31;4182507;28;20044;-57
2021/12/08 05:33:49;;;;;;;1.52;0.90;;;;;;;17.88;46.69;102018.88;4182713;28;20033;-57
2021/12/08 05:35:50;;;;;;;1.30;0.98;;;;;;;17.91;46.72;102035.00;4182634;28;20110;-53
2021/12/08 05:37:53;;;;;;;1.55;0.95;;;;;;;17.89;46.39;102020.56;4184122;28;20025;-56
2021/12/08 05:39:56;;;;;;;2.22;1.17;;;;;;;17.90;46.43;102011.16;4194002;28;20021;-55
2021/12/08 05:42:03;;;;;;;1.63;0.93;;;;;;;17.87;46.60;101998.66;4197643;28;20074;-56
2021/12/08 05:44:05;;;;;;;2.60;1.02;;;;;;;17.88;46.51;102002.25;4182497;28;20132;-55
2021/12/08 05:46:08;;;;;;;1.17;0.90;;;;;;;17.89;46.55;101992.88;4182627;28;20044;-54
2021/12/08 05:48:11;;;;;;;2.22;1.10;;;;;;;17.82;46.54;101976.34;4185743;28;20143;-55
2021/12/08 05:50:19;;;;;;;1.30;1.00;;;;;;;17.83;46.74;101994.66;4182392;28;20083;-58
2021/12/08 05:52:22;;;;;;;3.30;0.90;;;;;;;17.87;46.31;101995.00;4181847;28;20545;-58
2021/12/08 05:54:33;;;;;;;3.83;1.30;;;;;;;17.85;46.34;101992.50;4184576;28;20110;-56
2021/12/08 05:56:35;;;;;;;1.60;0.93;;;;;;;17.73;46.77;101967.53;4182196;28;20040;-55
2021/12/08 05:58:38;;;;;;;1.60;1.27;;;;;;;17.86;46.26;101985.03;4182245;28;20033;-57
2021/12/08 06:01:04;;;;;;;1.15;0.90;;;;;;;17.80;46.80;101980.44;4182533;28;20045;-56
2021/12/08 06:03:05;;;;;;;1.60;0.90;;;;;;;17.86;46.62;101971.19;4176847;28;20430;-59
2021/12/08 06:05:09;;;;;;;1.52;1.20;;;;;;;17.77;46.45;101956.81;4184890;28;20036;-56
2021/12/08 06:07:12;;;;;;;2.88;1.05;;;;;;;17.85;46.56;101973.09;4197453;28;20020;-54
2021/12/08 06:09:17;;;;;;;3.28;1.50;;;;;;;17.84;46.19;101973.34;4197951;28;20036;-56
2021/12/08 06:11:19;;;;;;;2.45;1.15;;;;;;;17.78;46.21;101962.16;4197694;28;20472;-56
2021/12/08 06:13:22;;;;;;;1.08;0.90;;;;;;;17.84;46.64;101970.59;4197177;28;20071;-55
2021/12/08 06:15:26;;;;;;;1.42;1.00;;;;;;;17.82;46.58;101965.25;4184291;28;20033;-56
2021/12/08 06:17:30;;;;;;;0.95;0.77;;;;;;;17.82;46.64;101958.88;4197134;28;20045;-57
2021/12/08 06:19:31;;;;;;;2.05;1.20;;;;;;;17.81;46.58;101969.13;4197850;28;20041;-55
2021/12/08 06:21:36;;;;;;;1.42;0.95;;;;;;;17.74;46.27;101960.91;4195568;28;20049;-56
2021/12/08 06:23:40;;;;;;;1.63;1.00;;;;;;;17.81;46.59;101971.88;4196811;28;20075;-57
2021/12/08 06:25:42;;;;;;;1.20;1.10;;;;;;;17.80;46.62;101972.97;4197791;28;20094;-55
2021/12/08 06:27:44;;;;;;;1.85;0.90;;;;;;;17.79;46.36;101968.53;4196724;28;20044;-57
2021/12/08 06:29:48;;;;;;;1.77;1.17;;;;;;;17.65;46.10;101951.22;4196777;28;20467;-57
2021/12/08 06:31:54;;;;;;;1.67;1.00;;;;;;;17.58;46.68;101935.78;4197896;28;20048;-57
2021/12/08 06:33:59;;;;;;;1.63;1.35;;;;;;;17.78;46.61;101978.75;4197297;28;20464;-58
2021/12/08 06:36:08;;;;;;;1.57;1.10;;;;;;;17.77;46.21;101976.19;4196988;28;20540;-56
2021/12/08 06:38:11;;;;;;;1.75;1.00;;;;;;;17.77;46.33;101982.56;4196316;28;20060;-56
2021/12/08 06:40:24;;;;;;;1.45;1.10;;;;;;;17.69;46.41;101974.59;4192113;28;20044;-58
2021/12/08 06:42:30;;;;;;;1.45;0.98;;;;;;;17.78;46.45;101986.22;4196945;28;20139;-57
2021/12/08 06:44:35;;;;;;;1.15;1.00;;;;;;;17.76;46.13;101982.81;4196084;28;20447;-57
2021/12/08 06:46:38;;;;;;;1.63;1.13;;;;;;;17.77;46.46;101995.56;4189829;28;20041;-57
2021/12/08 06:48:44;;;;;;;1.67;1.08;;;;;;;17.75;46.53;101998.59;4182843;28;20029;-57
2021/12/08 06:50:52;;;;;;;2.00;1.20;;;;;;;17.74;46.51;101999.69;4184499;28;20118;-57
2021/12/08 06:52:55;;;;;;;1.55;0.90;;;;;;;17.69;46.16;101982.91;4181410;28;20037;-54
2021/12/08 06:55:21;;;;;;;1.10;1.00;;;;;;;17.15;46.39;101901.66;4181349;28;20033;-57
2021/12/08 06:57:29;;;;;;;1.70;1.05;;;;;;;17.72;46.25;102010.09;4180992;28;20029;-57
2021/12/08 06:59:50;;;;;;;1.05;0.95;;;;;;;17.73;45.98;102000.75;4181279;28;20078;-56
2021/12/08 07:02:10;;;;;;;1.45;0.98;;;;;;;17.73;46.10;102000.75;4182148;28;20140;-55
2021/12/08 07:06:46;;;;;;;1.27;1.13;;;;;;;17.73;46.38;101984.16;4181019;28;20029;-55
2021/12/08 07:08:52;;;;;;;1.48;0.95;;;;;;;17.73;45.96;101984.16;4181239;28;20530;-57
2021/12/08 07:10:56;;;;;;;1.42;0.90;;;;;;;17.68;46.09;101972.88;4181370;28;20488;-57
2021/12/08 07:13:04;;;;;;;0.95;0.88;;;;;;;17.72;46.35;101982.41;4180933;28;20542;-57
2021/12/08 07:15:28;;;;;;;1.40;1.05;;;;;;;17.70;46.26;101978.19;4181090;28;20037;-58
2021/12/08 07:17:36;;;;;;;1.30;0.90;;;;;;;17.71;46.26;101975.19;4180543;28;20421;-57
2021/12/08 07:19:51;;;;;;;1.00;0.90;;;;;;;17.71;46.01;101986.25;4181022;28;20037;-54
2021/12/08 07:21:55;;;;;;;0.83;0.83;;;;;;;17.63;45.91;101972.75;4180896;28;20037;-57
2021/12/08 07:24:09;;;;;;;1.42;1.00;;;;;;;17.66;46.18;101983.34;4191058;28;20671;-57
2021/12/08 07:26:18;;;;;;;1.58;1.20;;;;;;;17.69;45.89;101993.97;4196880;28;20082;-58
2021/12/08 07:28:25;;;;;;;1.23;0.90;;;;;;;17.64;45.87;101991.06;4196231;28;20044;-57
2021/12/08 07:30:33;;;;;;;2.67;1.10;;;;;;;17.67;45.87;101990.56;4194126;28;20098;-57
2021/12/08 07:32:41;;;;;;;1.23;1.02;;;;;;;17.66;45.89;101988.03;4180297;28;20087;-58
2021/12/08 07:34:43;;;;;;;2.05;0.90;;;;;;;17.65;45.80;101987.22;4181977;28;20435;-56
2021/12/08 07:36:52;;;;;;;1.10;1.00;;;;;;;17.63;46.26;101986.56;4181617;28;20033;-57
2021/12/08 07:38:56;;;;;;;2.22;0.93;;;;;;;17.65;46.10;101987.22;4189991;28;20119;-57
2021/12/08 07:41:08;;;;;;;2.05;1.08;;;;;;;17.58;46.27;101980.91;4196452;28;20094;-56
2021/12/08 07:43:16;;;;;;;1.67;1.20;;;;;;;17.63;45.87;102000.41;4197003;28;20036;-57
2021/12/08 07:45:30;;;;;;;1.23;1.13;;;;;;;17.60;45.93;101984.28;4196895;28;20036;-57
2021/12/08 07:47:32;;;;;;;1.25;0.80;;;;;;;17.63;45.97;101972.75;4195507;28;20161;-54
2021/12/08 07:49:47;;;;;;;1.17;1.02;;;;;;;17.61;46.19;101974.91;4196957;28;20040;-58
2021/12/08 07:52:00;;;;;;;1.90;1.10;;;;;;;17.50;45.99;101954.41;4197487;28;20044;-57
2021/12/08 07:54:04;;;;;;;1.27;1.00;;;;;;;17.43;45.98;101927.91;4197218;28;20037;-56
2021/12/08 07:56:10;;;;;;;1.52;1.20;;;;;;;17.61;46.20;101952.78;4197581;28;20040;-58
2021/12/08 07:58:12;;;;;;;;;;;;;;;17.59;45.88;101943.84;4196085;28;20032;-56
2021/12/08 08:00:39;;;;;;;0.82;0.82;;;;;;;17.63;46.00;101939.53;4197265;28;19924;-56
2021/12/08 08:02:44;;;;;;;1.10;1.00;;;;;;;17.51;45.91;101925.66;4190942;28;20048;-56
2021/12/08 08:04:48;;;;;;;1.85;1.02;;;;;;;17.64;45.73;101951.44;4197461;28;20036;-57
2021/12/08 08:06:56;;;;;;;1.25;0.95;;;;;;;17.60;45.58;101956.63;4196434;28;20032;-55
2021/12/08 08:08:58;;;;;;;1.63;1.05;;;;;;;17.62;46.07;101959.16;4197283;28;20041;-57
2021/12/08 08:11:07;;;;;;;2.20;1.17;;;;;;;17.58;45.94;101946.84;4197093;28;20044;-55
2021/12/08 08:13:12;;;;;;;1.00;0.90;;;;;;;17.59;45.79;101943.84;4197188;28;20165;-58
2021/12/08 08:15:23;;;;;;;1.17;0.93;;;;;;;17.58;46.13;101930.25;4196543;28;20040;-57
2021/12/08 08:17:34;;;;;;;1.13;0.93;;;;;;;17.57;45.90;101926.63;4196911;28;20032;-56
2021/12/08 08:19:42;;;;;;;1.02;0.82;;;;;;;17.58;45.69;101931.09;4194959;28;20154;-57
2021/12/08 08:21:47;;;;;;;0.80;0.80;;;;;;;17.57;45.98;101920.25;4194319;28;20472;-57
2021/12/08 08:23:51;;;;;;;;;;;;;;;17.54;45.89;101924.31;4197080;28;20094;-56
2021/12/08 08:25:59;;;;;;;1.10;1.00;;;;;;;17.60;45.72;101928.94;4196742;28;19954;-57
2021/12/08 08:28:01;;;;;;;1.83;0.90;;;;;;;17.60;45.59;101922.56;4197049;28;20040;-57
2021/12/08 08:30:12;;;;;;;2.17;1.05;;;;;;;17.53;45.81;101914.34;4194684;28;20098;-57
2021/12/08 08:32:23;;;;;;;1.00;0.90;;;;;;;17.56;45.99;101913.88;4182598;28;20053;-58
2021/12/08 08:34:34;;;;;;;1.73;0.90;;;;;;;17.54;45.77;101914.09;4197026;28;20106;-56
2021/12/08 08:36:41;;;;;;;1.10;0.88;;;;;;;17.54;45.83;101907.72;4198589;28;20052;-55
2021/12/08 08:39:07;;;;;;;1.17;0.95;;;;;;;17.50;45.81;101901.84;4200811;28;20102;-57
2021/12/08 08:41:11;;;;;;;;;;;;;;;17.52;45.90;101909.91;4200135;28;20157;-56
2021/12/08 08:43:12;;;;;;;2.10;1.13;;;;;;;17.39;45.94;101874.09;4200086;28;19989;-56
2021/12/08 08:45:35;;;;;;;1.10;1.00;;;;;;;17.59;45.66;101898.72;4198347;28;20082;-55
2021/12/08 08:47:45;;;;;;;1.00;0.90;;;;;;;17.56;45.42;101885.38;4197921;28;20189;-56
2021/12/08 08:49:47;;;;;;;1.00;0.90;;;;;;;17.49;45.70;101866.06;4200089;28;20090;-56
2021/12/08 08:52:13;;;;;;;1.25;1.05;;;;;;;17.53;45.87;101872.81;4199849;28;20041;-55
2021/12/08 08:54:21;;;;;;;0.80;0.80;;;;;;;17.45;45.87;101862.09;4193684;28;20036;-57
2021/12/08 08:56:29;;;;;;;1.63;1.05;;;;;;;17.52;45.62;101876.69;4187455;28;20040;-57
2021/12/08 08:58:32;;;;;;;1.05;0.98;;;;;;;17.52;45.60;101876.69;4184038;28;20091;-55
2021/12/08 09:00:34;;;;;;;1.60;1.23;;;;;;;17.51;45.65;101872.22;4183528;28;20029;-57
2021/12/08 09:02:39;;;;;;;1.20;1.00;;;;;;;17.44;45.75;101863.16;4187489;28;20044;-56
2021/12/08 09:04:45;;;;;;;1.20;1.00;;;;;;;17.50;46.00;101878.81;4200217;28;20102;-55
2021/12/08 09:06:51;;;;;;;0.90;0.90;;;;;;;17.50;45.97;101867.75;4199557;28;20430;-57
2021/12/08 09:08:53;;;;;;;2.90;1.13;;;;;;;17.48;45.51;101856.94;4199734;28;20426;-55
2021/12/08 09:11:01;;;;;;;2.10;1.13;;;;;;;17.50;45.83;101851.16;4199608;28;20049;-58
2021/12/08 09:13:09;;;;;;;1.05;0.95;;;;;;;17.34;45.51;101836.06;4200007;28;20090;-58
2021/12/08 09:15:18;;;;;;;1.77;0.95;;;;;;;17.48;45.80;101867.16;4199654;28;20033;-56
2021/12/08 09:17:31;;;;;;;1.27;0.98;;;;;;;17.47;46.00;101857.19;4199592;28;20384;-56
2021/12/08 09:19:41;;;;;;;1.52;1.25;;;;;;;17.48;45.75;101859.69;4199953;28;20032;-56
2021/12/08 09:21:59;;;;;;;1.63;1.00;;;;;;;17.49;45.59;101860.53;4200047;28;20036;-56
2021/12/08 09:24:44;;;;;;;1.80;1.08;;;;;;;17.45;45.54;101853.78;4187816;28;20041;-57
2021/12/08 09:26:52;;;;;;;1.23;1.08;;;;;;;17.49;45.47;101847.53;4180352;28;20102;-57
2021/12/08 09:29:19;;;;;;;1.45;1.00;;;;;;;17.46;45.77;101855.50;4184313;28;20037;-55
2021/12/08 09:31:32;;;;;;;1.20;1.00;;;;;;;17.47;45.51;101851.66;4182052;28;20041;-56
2021/12/08 09:33:44;;;;;;;1.27;1.02;;;;;;;17.42;45.41;101854.28;4183352;28;20068;-56
2021/12/08 09:36:01;;;;;;;1.58;0.93;;;;;;;17.45;45.57;101864.84;4183104;28;20094;-56
2021/12/08 09:38:14;;;;;;;2.00;0.98;;;;;;;17.41;45.75;101853.44;4182996;28;20087;-55
2021/12/08 09:40:29;;;;;;;1.88;1.10;;;;;;;17.43;45.88;101853.19;4195893;28;20040;-56
2021/12/08 09:42:47;;;;;;;1.35;1.05;;;;;;;17.39;45.64;101854.72;4182392;28;20423;-56
2021/12/08 09:44:56;;;;;;;1.55;1.00;;;;;;;17.44;45.53;101868.72;4184581;28;20044;-56
2021/12/08 09:46:58;;;;;;;0.70;0.70;;;;;;;17.42;45.50;101870.88;4192087;28;20033;-55
2021/12/08 09:49:01;;;;;;;1.48;0.90;;;;;;;17.42;45.55;101870.88;4199036;28;20037;-57
2021/12/08 09:51:03;;;;;;;1.05;0.88;;;;;;;17.42;45.60;101870.88;4198767;28;20434;-57
2021/12/08 09:53:06;;;;;;;0.88;0.80;;;;;;;17.39;45.49;101863.03;4199186;28;20089;-56
2021/12/08 09:55:09;;;;;;;1.02;0.93;;;;;;;17.41;45.94;101880.22;4198774;28;20438;-57
2021/12/08 09:57:13;;;;;;;0.85;0.85;;;;;;;17.37;45.81;101860.50;4198651;28;20040;-56
2021/12/08 09:59:16;;;;;;;1.77;1.08;;;;;;;17.23;45.94;101840.50;4196605;28;20417;-56
2021/12/08 10:01:18;;;;;;;1.35;1.25;;;;;;;17.40;45.59;101873.00;4195030;28;20517;-57
2021/12/08 10:03:20;;;;;;;2.05;1.00;;;;;;;17.35;45.93;101870.94;4199104;28;20025;-55
2021/12/08 10:05:21;;;;;;;1.00;0.85;;;;;;;17.39;45.74;101888.78;4198656;28;20114;-56
2021/12/08 10:07:25;;;;;;;1.27;0.98;;;;;;;17.22;45.65;101855.38;4199280;28;20090;-54
2021/12/08 10:09:27;;;;;;;0.77;0.77;;;;;;;17.31;45.83;101874.44;4198891;28;20089;-57
2021/12/08 10:11:30;;;;;;;1.27;1.00;;;;;;;17.36;45.45;101872.63;4198268;28;20106;-56
2021/12/08 10:13:31;;;;;;;1.00;0.90;;;;;;;17.36;45.65;101875.41;4199142;28;20041;-57
2021/12/08 10:15:36;;;;;;;1.15;0.88;;;;;;;17.39;45.75;101877.72;4198919;28;20044;-57
2021/12/08 10:17:37;;;;;;;1.10;1.00;;;;;;;17.38;45.72;101881.56;4198680;28;20178;-56
2021/12/08 10:19:39;;;;;;;1.10;1.00;;;;;;;17.37;45.54;101879.03;4198769;28;20032;-56
2021/12/08 10:21:42;;;;;;;1.58;1.10;;;;;;;17.37;45.52;101874.34;4199015;28;20029;-57